sensor_id;sensor_type;location;lat;lon;timestamp;temperature;humidity
21163;DHT22;10739;52.198;20.908;2022-09-13T00:02:09;9.40;99.90
21163;DHT22;10739;52.198;20.908;2022-09-13T00:04:35;9.40;99.90
21163;DHT22;10739;52.198;20.908;2022-09-13T00:07:01;9.40;99.90
21163;DHT22;10739;52.198;20.908;2022-09-13T00:09:27;9.30;99.90
21163;DHT22;10739;52.198;20.908;2022-09-13T00:11:53;9.30;99.90
21163;DHT22;10739;52.198;20.908;2022-09-13T00:14:19;9.20;99.90
21163;DHT22;10739;52.198;20.908;2022-09-13T00:16:45;9.30;99.90
21163;DHT22;10739;52.198;20.908;2022-09-13T00:19:11;9.30;99.90
21163;DHT22;10739;52.198;20.908;2022-09-13T00:21:37;9.20;99.90
21163;DHT22;10739;52.198;20.908;2022-09-13T00:24:04;9.20;99.90
21163;DHT22;10739;52.198;20.908;2022-09-13T00:26:30;9.20;99.90
21163;DHT22;10739;52.198;20.908;2022-09-13T00:28:57;9.20;99.90
21163;DHT22;10739;52.198;20.908;2022-09-13T00:31:26;9.10;99.90
21163;DHT22;10739;52.198;20.908;2022-09-13T00:33:53;9.10;99.90
21163;DHT22;10739;52.198;20.908;2022-09-13T00:36:20;9.00;99.90
21163;DHT22;10739;52.198;20.908;2022-09-13T00:38:46;9.10;99.90
21163;DHT22;10739;52.198;20.908;2022-09-13T00:41:14;9.30;99.90
21163;DHT22;10739;52.198;20.908;2022-09-13T00:43:53;9.40;99.90
21163;DHT22;10739;52.198;20.908;2022-09-13T00:49:21;9.50;99.90
21163;DHT22;10739;52.198;20.908;2022-09-13T00:51:58;9.50;99.90
21163;DHT22;10739;52.198;20.908;2022-09-13T00:54:30;9.50;99.90
21163;DHT22;10739;52.198;20.908;2022-09-13T00:57:04;9.50;99.90
21163;DHT22;10739;52.198;20.908;2022-09-13T00:59:41;9.60;99.90
21163;DHT22;10739;52.198;20.908;2022-09-13T01:02:12;9.50;99.90
21163;DHT22;10739;52.198;20.908;2022-09-13T01:04:39;9.40;99.90
21163;DHT22;10739;52.198;20.908;2022-09-13T01:07:09;9.40;99.90
21163;DHT22;10739;52.198;20.908;2022-09-13T01:09:41;9.40;99.90
21163;DHT22;10739;52.198;20.908;2022-09-13T01:12:31;9.30;99.90
21163;DHT22;10739;52.198;20.908;2022-09-13T01:15:04;9.30;99.90
21163;DHT22;10739;52.198;20.908;2022-09-13T01:17:32;9.20;99.90
21163;DHT22;10739;52.198;20.908;2022-09-13T01:19:59;9.20;99.90
21163;DHT22;10739;52.198;20.908;2022-09-13T01:31:43;9.00;99.90
21163;DHT22;10739;52.198;20.908;2022-09-13T01:55:32;8.50;99.90
21163;DHT22;10739;52.198;20.908;2022-09-13T02:01:34;8.40;99.90
21163;DHT22;10739;52.198;20.908;2022-09-13T02:04:19;8.40;99.90
21163;DHT22;10739;52.198;20.908;2022-09-13T02:07:10;8.40;99.90
21163;DHT22;10739;52.198;20.908;2022-09-13T02:09:46;8.40;99.90
21163;DHT22;10739;52.198;20.908;2022-09-13T02:12:19;8.30;99.90
21163;DHT22;10739;52.198;20.908;2022-09-13T02:14:57;8.30;99.90
21163;DHT22;10739;52.198;20.908;2022-09-13T02:17:38;8.30;99.90
21163;DHT22;10739;52.198;20.908;2022-09-13T02:20:27;8.30;99.90
21163;DHT22;10739;52.198;20.908;2022-09-13T02:23:06;8.30;99.90
21163;DHT22;10739;52.198;20.908;2022-09-13T02:25:38;8.30;99.90
21163;DHT22;10739;52.198;20.908;2022-09-13T02:28:09;8.30;99.90
21163;DHT22;10739;52.198;20.908;2022-09-13T02:30:43;8.20;99.90
21163;DHT22;10739;52.198;20.908;2022-09-13T02:33:25;8.10;99.90
21163;DHT22;10739;52.198;20.908;2022-09-13T02:36:08;8.00;99.90
21163;DHT22;10739;52.198;20.908;2022-09-13T02:38:40;8.10;99.90
21163;DHT22;10739;52.198;20.908;2022-09-13T02:41:21;8.10;99.90
21163;DHT22;10739;52.198;20.908;2022-09-13T02:43:55;8.00;99.90
21163;DHT22;10739;52.198;20.908;2022-09-13T02:49:20;7.90;99.90
21163;DHT22;10739;52.198;20.908;2022-09-13T02:57:50;7.80;99.90
21163;DHT22;10739;52.198;20.908;2022-09-13T03:00:25;7.80;99.90
21163;DHT22;10739;52.198;20.908;2022-09-13T03:02:55;7.80;99.90
21163;DHT22;10739;52.198;20.908;2022-09-13T03:05:23;7.80;99.90
21163;DHT22;10739;52.198;20.908;2022-09-13T03:07:50;7.70;99.90
21163;DHT22;10739;52.198;20.908;2022-09-13T03:10:17;7.80;99.90
21163;DHT22;10739;52.198;20.908;2022-09-13T03:16:23;7.70;99.90
21163;DHT22;10739;52.198;20.908;2022-09-13T03:25:27;7.70;99.90
21163;DHT22;10739;52.198;20.908;2022-09-13T03:40:56;7.50;99.90
21163;DHT22;10739;52.198;20.908;2022-09-13T03:43:52;7.50;99.90
21163;DHT22;10739;52.198;20.908;2022-09-13T03:46:50;7.50;99.90
21163;DHT22;10739;52.198;20.908;2022-09-13T03:49:22;7.40;99.90
21163;DHT22;10739;52.198;20.908;2022-09-13T03:51:51;7.40;99.90
21163;DHT22;10739;52.198;20.908;2022-09-13T03:54:20;7.40;99.90
21163;DHT22;10739;52.198;20.908;2022-09-13T03:57:15;7.40;99.90
21163;DHT22;10739;52.198;20.908;2022-09-13T03:59:56;7.30;99.90
21163;DHT22;10739;52.198;20.908;2022-09-13T04:02:24;7.20;99.90
21163;DHT22;10739;52.198;20.908;2022-09-13T04:04:51;7.20;99.90
21163;DHT22;10739;52.198;20.908;2022-09-13T04:07:20;7.20;99.90
21163;DHT22;10739;52.198;20.908;2022-09-13T04:09:49;7.20;99.90
21163;DHT22;10739;52.198;20.908;2022-09-13T04:12:16;7.20;99.90
21163;DHT22;10739;52.198;20.908;2022-09-13T04:14:43;7.10;99.90
21163;DHT22;10739;52.198;20.908;2022-09-13T04:17:10;7.10;99.90
21163;DHT22;10739;52.198;20.908;2022-09-13T04:19:37;7.10;99.90
21163;DHT22;10739;52.198;20.908;2022-09-13T04:22:03;7.10;99.90
21163;DHT22;10739;52.198;20.908;2022-09-13T04:24:30;7.10;99.90
21163;DHT22;10739;52.198;20.908;2022-09-13T04:26:56;7.10;99.90
21163;DHT22;10739;52.198;20.908;2022-09-13T04:29:25;7.10;99.90
21163;DHT22;10739;52.198;20.908;2022-09-13T04:31:52;7.10;99.90
21163;DHT22;10739;52.198;20.908;2022-09-13T04:34:20;7.10;99.90
21163;DHT22;10739;52.198;20.908;2022-09-13T04:36:50;7.10;99.90
21163;DHT22;10739;52.198;20.908;2022-09-13T04:39:18;7.10;99.90
21163;DHT22;10739;52.198;20.908;2022-09-13T04:41:46;7.10;99.90
21163;DHT22;10739;52.198;20.908;2022-09-13T04:44:16;7.10;99.90
21163;DHT22;10739;52.198;20.908;2022-09-13T04:46:46;7.20;99.90
21163;DHT22;10739;52.198;20.908;2022-09-13T04:49:15;7.20;99.90
21163;DHT22;10739;52.198;20.908;2022-09-13T04:51:42;7.20;99.90
21163;DHT22;10739;52.198;20.908;2022-09-13T04:54:09;7.30;99.90
21163;DHT22;10739;52.198;20.908;2022-09-13T04:56:37;7.30;99.90
21163;DHT22;10739;52.198;20.908;2022-09-13T04:59:03;7.30;99.90
21163;DHT22;10739;52.198;20.908;2022-09-13T05:01:30;7.40;99.90
21163;DHT22;10739;52.198;20.908;2022-09-13T05:03:56;7.40;99.90
21163;DHT22;10739;52.198;20.908;2022-09-13T05:06:22;7.50;99.90
21163;DHT22;10739;52.198;20.908;2022-09-13T05:08:53;7.50;99.90
21163;DHT22;10739;52.198;20.908;2022-09-13T05:11:21;7.60;99.90
21163;DHT22;10739;52.198;20.908;2022-09-13T05:13:50;7.70;99.90
21163;DHT22;10739;52.198;20.908;2022-09-13T05:16:24;7.70;99.90
21163;DHT22;10739;52.198;20.908;2022-09-13T05:18:53;7.80;99.90
21163;DHT22;10739;52.198;20.908;2022-09-13T05:21:20;7.90;99.90
21163;DHT22;10739;52.198;20.908;2022-09-13T05:23:51;8.00;99.90
21163;DHT22;10739;52.198;20.908;2022-09-13T05:26:19;8.10;99.90
21163;DHT22;10739;52.198;20.908;2022-09-13T05:28:46;8.10;99.90
21163;DHT22;10739;52.198;20.908;2022-09-13T05:31:23;8.20;99.90
21163;DHT22;10739;52.198;20.908;2022-09-13T05:34:02;8.30;99.90
21163;DHT22;10739;52.198;20.908;2022-09-13T05:36:32;8.40;99.90
21163;DHT22;10739;52.198;20.908;2022-09-13T05:38:58;8.50;99.90
21163;DHT22;10739;52.198;20.908;2022-09-13T05:41:25;8.60;99.90
21163;DHT22;10739;52.198;20.908;2022-09-13T05:43:51;8.80;99.90
21163;DHT22;10739;52.198;20.908;2022-09-13T05:46:19;8.90;99.90
21163;DHT22;10739;52.198;20.908;2022-09-13T05:48:47;9.00;99.90
21163;DHT22;10739;52.198;20.908;2022-09-13T05:51:18;9.10;99.90
21163;DHT22;10739;52.198;20.908;2022-09-13T05:53:48;9.30;99.90
21163;DHT22;10739;52.198;20.908;2022-09-13T05:56:18;9.40;99.90
21163;DHT22;10739;52.198;20.908;2022-09-13T05:58:50;9.50;99.90
21163;DHT22;10739;52.198;20.908;2022-09-13T06:01:19;9.70;99.90
21163;DHT22;10739;52.198;20.908;2022-09-13T06:03:51;9.80;99.90
21163;DHT22;10739;52.198;20.908;2022-09-13T06:06:21;9.90;99.90
21163;DHT22;10739;52.198;20.908;2022-09-13T06:08:54;10.00;99.90
21163;DHT22;10739;52.198;20.908;2022-09-13T06:11:23;10.20;99.90
21163;DHT22;10739;52.198;20.908;2022-09-13T06:13:50;10.40;99.90
21163;DHT22;10739;52.198;20.908;2022-09-13T06:16:18;10.50;99.90
21163;DHT22;10739;52.198;20.908;2022-09-13T06:18:45;10.70;99.90
21163;DHT22;10739;52.198;20.908;2022-09-13T06:21:15;10.70;99.90
21163;DHT22;10739;52.198;20.908;2022-09-13T06:23:51;10.90;99.90
21163;DHT22;10739;52.198;20.908;2022-09-13T06:26:24;11.00;99.90
21163;DHT22;10739;52.198;20.908;2022-09-13T06:28:54;11.10;99.90
21163;DHT22;10739;52.198;20.908;2022-09-13T06:31:24;11.30;99.90
21163;DHT22;10739;52.198;20.908;2022-09-13T06:34:00;11.40;99.90
21163;DHT22;10739;52.198;20.908;2022-09-13T06:36:30;11.60;99.90
21163;DHT22;10739;52.198;20.908;2022-09-13T06:38:56;11.70;99.90
21163;DHT22;10739;52.198;20.908;2022-09-13T06:41:25;11.90;99.90
21163;DHT22;10739;52.198;20.908;2022-09-13T06:43:57;12.10;99.90
21163;DHT22;10739;52.198;20.908;2022-09-13T06:46:26;12.20;99.90
21163;DHT22;10739;52.198;20.908;2022-09-13T06:48:57;12.40;99.90
21163;DHT22;10739;52.198;20.908;2022-09-13T06:51:24;12.70;99.90
21163;DHT22;10739;52.198;20.908;2022-09-13T06:53:52;13.20;99.90
21163;DHT22;10739;52.198;20.908;2022-09-13T06:56:30;14.20;99.90
21163;DHT22;10739;52.198;20.908;2022-09-13T06:58:59;15.40;99.90
21163;DHT22;10739;52.198;20.908;2022-09-13T07:01:30;16.30;99.90
21163;DHT22;10739;52.198;20.908;2022-09-13T07:04:00;17.30;99.90
21163;DHT22;10739;52.198;20.908;2022-09-13T07:06:32;17.80;99.90
21163;DHT22;10739;52.198;20.908;2022-09-13T07:09:05;17.70;99.90
21163;DHT22;10739;52.198;20.908;2022-09-13T07:11:36;18.20;99.90
21163;DHT22;10739;52.198;20.908;2022-09-13T07:14:04;18.30;99.90
21163;DHT22;10739;52.198;20.908;2022-09-13T07:16:36;18.00;99.90
21163;DHT22;10739;52.198;20.908;2022-09-13T07:19:05;17.50;99.90
21163;DHT22;10739;52.198;20.908;2022-09-13T07:21:33;17.20;99.90
21163;DHT22;10739;52.198;20.908;2022-09-13T07:24:01;17.10;99.90
21163;DHT22;10739;52.198;20.908;2022-09-13T07:26:27;17.20;99.90
21163;DHT22;10739;52.198;20.908;2022-09-13T07:28:55;17.10;99.90
21163;DHT22;10739;52.198;20.908;2022-09-13T07:31:36;16.90;99.90
21163;DHT22;10739;52.198;20.908;2022-09-13T07:34:07;16.60;99.90
21163;DHT22;10739;52.198;20.908;2022-09-13T07:36:37;15.40;99.90
21163;DHT22;10739;52.198;20.908;2022-09-13T07:39:04;15.50;99.90
21163;DHT22;10739;52.198;20.908;2022-09-13T07:41:32;16.00;99.90
21163;DHT22;10739;52.198;20.908;2022-09-13T07:44:00;15.80;99.90
21163;DHT22;10739;52.198;20.908;2022-09-13T07:46:28;15.80;99.90
21163;DHT22;10739;52.198;20.908;2022-09-13T07:49:01;15.70;99.90
21163;DHT22;10739;52.198;20.908;2022-09-13T07:51:29;15.70;99.90
21163;DHT22;10739;52.198;20.908;2022-09-13T07:54:00;15.60;99.90
21163;DHT22;10739;52.198;20.908;2022-09-13T07:56:31;15.70;99.90
21163;DHT22;10739;52.198;20.908;2022-09-13T07:59:04;15.60;99.90
21163;DHT22;10739;52.198;20.908;2022-09-13T08:01:37;15.70;99.90
21163;DHT22;10739;52.198;20.908;2022-09-13T08:04:11;16.20;99.90
21163;DHT22;10739;52.198;20.908;2022-09-13T08:06:40;16.80;99.90
21163;DHT22;10739;52.198;20.908;2022-09-13T08:09:08;17.20;99.90
21163;DHT22;10739;52.198;20.908;2022-09-13T08:11:38;17.00;99.90
21163;DHT22;10739;52.198;20.908;2022-09-13T08:14:09;16.50;99.90
21163;DHT22;10739;52.198;20.908;2022-09-13T08:16:36;17.00;99.90
21163;DHT22;10739;52.198;20.908;2022-09-13T08:19:05;17.00;99.90
21163;DHT22;10739;52.198;20.908;2022-09-13T08:21:36;16.90;99.90
21163;DHT22;10739;52.198;20.908;2022-09-13T08:24:05;16.90;99.90
21163;DHT22;10739;52.198;20.908;2022-09-13T08:26:34;17.20;99.90
21163;DHT22;10739;52.198;20.908;2022-09-13T08:29:03;17.60;99.90
21163;DHT22;10739;52.198;20.908;2022-09-13T08:31:31;17.60;99.90
21163;DHT22;10739;52.198;20.908;2022-09-13T08:33:58;17.10;99.90
21163;DHT22;10739;52.198;20.908;2022-09-13T08:36:26;16.90;99.90
21163;DHT22;10739;52.198;20.908;2022-09-13T08:38:58;17.50;99.90
21163;DHT22;10739;52.198;20.908;2022-09-13T08:44:39;18.20;99.90
21163;DHT22;10739;52.198;20.908;2022-09-13T08:58:36;18.80;99.90
21163;DHT22;10739;52.198;20.908;2022-09-13T09:07:19;18.90;99.90
21163;DHT22;10739;52.198;20.908;2022-09-13T09:09:55;19.10;99.90
21163;DHT22;10739;52.198;20.908;2022-09-13T09:18:10;18.70;99.90
21163;DHT22;10739;52.198;20.908;2022-09-13T09:20:46;18.00;99.90
21163;DHT22;10739;52.198;20.908;2022-09-13T09:26:21;18.40;99.90
21163;DHT22;10739;52.198;20.908;2022-09-13T09:29:07;19.40;99.90
21163;DHT22;10739;52.198;20.908;2022-09-13T09:34:47;18.70;99.90
21163;DHT22;10739;52.198;20.908;2022-09-13T09:37:30;18.80;99.90
21163;DHT22;10739;52.198;20.908;2022-09-13T09:40:00;18.40;99.90
21163;DHT22;10739;52.198;20.908;2022-09-13T09:42:42;18.70;99.90
21163;DHT22;10739;52.198;20.908;2022-09-13T09:47:51;18.70;99.90
21163;DHT22;10739;52.198;20.908;2022-09-13T09:50:25;19.00;99.90
21163;DHT22;10739;52.198;20.908;2022-09-13T09:53:07;19.10;99.90
21163;DHT22;10739;52.198;20.908;2022-09-13T09:56:23;19.00;99.90
21163;DHT22;10739;52.198;20.908;2022-09-13T09:58:52;19.30;99.90
21163;DHT22;10739;52.198;20.908;2022-09-13T10:06:30;19.80;99.90
21163;DHT22;10739;52.198;20.908;2022-09-13T10:09:00;19.70;99.90
21163;DHT22;10739;52.198;20.908;2022-09-13T10:11:42;19.10;99.90
21163;DHT22;10739;52.198;20.908;2022-09-13T10:14:44;19.00;99.90
21163;DHT22;10739;52.198;20.908;2022-09-13T10:17:20;18.90;99.90
21163;DHT22;10739;52.198;20.908;2022-09-13T10:22:17;18.60;99.90
21163;DHT22;10739;52.198;20.908;2022-09-13T10:24:43;18.40;99.90
21163;DHT22;10739;52.198;20.908;2022-09-13T10:27:25;18.30;99.90
21163;DHT22;10739;52.198;20.908;2022-09-13T10:30:01;18.70;99.90
21163;DHT22;10739;52.198;20.908;2022-09-13T10:32:31;19.10;99.90
21163;DHT22;10739;52.198;20.908;2022-09-13T10:35:07;19.00;99.90
21163;DHT22;10739;52.198;20.908;2022-09-13T10:37:44;19.10;99.90
21163;DHT22;10739;52.198;20.908;2022-09-13T10:40:31;19.40;99.90
21163;DHT22;10739;52.198;20.908;2022-09-13T10:43:00;19.30;99.90
21163;DHT22;10739;52.198;20.908;2022-09-13T10:45:30;18.80;99.90
21163;DHT22;10739;52.198;20.908;2022-09-13T10:48:05;18.70;99.90
21163;DHT22;10739;52.198;20.908;2022-09-13T10:50:37;18.90;99.90
21163;DHT22;10739;52.198;20.908;2022-09-13T10:53:34;18.90;99.90
21163;DHT22;10739;52.198;20.908;2022-09-13T10:56:21;18.80;99.90
21163;DHT22;10739;52.198;20.908;2022-09-13T10:58:54;18.60;99.90
21163;DHT22;10739;52.198;20.908;2022-09-13T11:27:59;18.20;99.90
21163;DHT22;10739;52.198;20.908;2022-09-13T11:42:42;18.50;99.90
21163;DHT22;10739;52.198;20.908;2022-09-13T11:45:22;18.50;99.90
21163;DHT22;10739;52.198;20.908;2022-09-13T11:48:06;18.40;99.90
21163;DHT22;10739;52.198;20.908;2022-09-13T11:51:13;17.90;99.90
21163;DHT22;10739;52.198;20.908;2022-09-13T11:57:09;18.40;99.90
21163;DHT22;10739;52.198;20.908;2022-09-13T11:59:55;18.50;99.90
21163;DHT22;10739;52.198;20.908;2022-09-13T12:05:44;19.10;99.90
21163;DHT22;10739;52.198;20.908;2022-09-13T12:08:25;19.10;99.90
21163;DHT22;10739;52.198;20.908;2022-09-13T12:11:02;19.10;99.90
21163;DHT22;10739;52.198;20.908;2022-09-13T12:13:54;19.10;99.90
21163;DHT22;10739;52.198;20.908;2022-09-13T12:16:39;19.30;99.90
21163;DHT22;10739;52.198;20.908;2022-09-13T12:22:03;18.70;99.90
21163;DHT22;10739;52.198;20.908;2022-09-13T12:24:55;18.40;99.90
21163;DHT22;10739;52.198;20.908;2022-09-13T12:28:30;18.40;99.90
21163;DHT22;10739;52.198;20.908;2022-09-13T12:30:49;18.40;99.90
21163;DHT22;10739;52.198;20.908;2022-09-13T12:33:20;18.30;99.90
21163;DHT22;10739;52.198;20.908;2022-09-13T12:50:49;18.10;99.90
21163;DHT22;10739;52.198;20.908;2022-09-13T13:02:02;18.30;99.90
21163;DHT22;10739;52.198;20.908;2022-09-13T13:05:27;18.20;99.90
21163;DHT22;10739;52.198;20.908;2022-09-13T13:08:06;18.20;99.90
21163;DHT22;10739;52.198;20.908;2022-09-13T13:13:59;18.10;99.90
21163;DHT22;10739;52.198;20.908;2022-09-13T13:16:38;18.20;99.90
21163;DHT22;10739;52.198;20.908;2022-09-13T13:19:29;18.20;99.90
21163;DHT22;10739;52.198;20.908;2022-09-13T13:25:35;18.20;99.90
21163;DHT22;10739;52.198;20.908;2022-09-13T13:33:53;18.40;99.90
21163;DHT22;10739;52.198;20.908;2022-09-13T13:36:26;18.50;99.90
21163;DHT22;10739;52.198;20.908;2022-09-13T13:45:05;18.40;99.90
21163;DHT22;10739;52.198;20.908;2022-09-13T13:47:52;18.30;99.90
21163;DHT22;10739;52.198;20.908;2022-09-13T13:50:34;18.20;99.90
21163;DHT22;10739;52.198;20.908;2022-09-13T13:53:20;18.20;99.90
21163;DHT22;10739;52.198;20.908;2022-09-13T13:56:14;18.10;99.90
21163;DHT22;10739;52.198;20.908;2022-09-13T13:58:48;18.10;99.90
21163;DHT22;10739;52.198;20.908;2022-09-13T14:01:27;18.10;99.90
21163;DHT22;10739;52.198;20.908;2022-09-13T14:07:01;18.00;99.90
21163;DHT22;10739;52.198;20.908;2022-09-13T14:10:12;18.10;99.90
21163;DHT22;10739;52.198;20.908;2022-09-13T14:18:51;18.20;99.90
21163;DHT22;10739;52.198;20.908;2022-09-13T14:21:27;18.20;99.90
21163;DHT22;10739;52.198;20.908;2022-09-13T14:24:20;18.20;99.90
21163;DHT22;10739;52.198;20.908;2022-09-13T14:26:51;18.20;99.90
21163;DHT22;10739;52.198;20.908;2022-09-13T14:29:23;18.20;99.90
21163;DHT22;10739;52.198;20.908;2022-09-13T14:31:56;18.30;99.90
21163;DHT22;10739;52.198;20.908;2022-09-13T14:34:33;18.30;99.90
21163;DHT22;10739;52.198;20.908;2022-09-13T14:37:05;18.30;99.90
21163;DHT22;10739;52.198;20.908;2022-09-13T14:40:00;18.20;99.90
21163;DHT22;10739;52.198;20.908;2022-09-13T14:42:41;18.10;99.90
21163;DHT22;10739;52.198;20.908;2022-09-13T14:45:19;18.10;99.90
21163;DHT22;10739;52.198;20.908;2022-09-13T14:47:56;18.10;99.90
21163;DHT22;10739;52.198;20.908;2022-09-13T14:51:22;18.20;99.90
21163;DHT22;10739;52.198;20.908;2022-09-13T14:53:34;18.20;99.90
21163;DHT22;10739;52.198;20.908;2022-09-13T14:58:47;18.20;99.90
21163;DHT22;10739;52.198;20.908;2022-09-13T15:01:27;18.20;99.90
21163;DHT22;10739;52.198;20.908;2022-09-13T15:03:57;18.10;99.90
21163;DHT22;10739;52.198;20.908;2022-09-13T15:06:39;18.10;99.90
21163;DHT22;10739;52.198;20.908;2022-09-13T15:11:37;18.00;99.90
21163;DHT22;10739;52.198;20.908;2022-09-13T15:14:30;18.00;99.90
21163;DHT22;10739;52.198;20.908;2022-09-13T15:17:10;17.90;99.90
21163;DHT22;10739;52.198;20.908;2022-09-13T15:19:47;17.90;99.90
21163;DHT22;10739;52.198;20.908;2022-09-13T15:22:25;17.90;99.90
21163;DHT22;10739;52.198;20.908;2022-09-13T15:24:57;17.90;99.90
21163;DHT22;10739;52.198;20.908;2022-09-13T15:27:27;17.80;99.90
21163;DHT22;10739;52.198;20.908;2022-09-13T15:30:03;17.80;99.90
21163;DHT22;10739;52.198;20.908;2022-09-13T15:35:42;17.80;99.90
21163;DHT22;10739;52.198;20.908;2022-09-13T15:38:29;17.80;99.90
21163;DHT22;10739;52.198;20.908;2022-09-13T15:41:11;17.80;99.90
21163;DHT22;10739;52.198;20.908;2022-09-13T15:43:39;17.80;99.90
21163;DHT22;10739;52.198;20.908;2022-09-13T15:46:05;17.80;99.90
21163;DHT22;10739;52.198;20.908;2022-09-13T15:48:35;17.70;99.90
21163;DHT22;10739;52.198;20.908;2022-09-13T15:51:09;17.70;99.90
21163;DHT22;10739;52.198;20.908;2022-09-13T15:53:39;17.70;99.90
21163;DHT22;10739;52.198;20.908;2022-09-13T15:56:08;17.70;99.90
21163;DHT22;10739;52.198;20.908;2022-09-13T15:58:38;17.80;99.90
21163;DHT22;10739;52.198;20.908;2022-09-13T16:01:04;17.80;99.90
21163;DHT22;10739;52.198;20.908;2022-09-13T16:03:31;17.90;99.90
21163;DHT22;10739;52.198;20.908;2022-09-13T16:05:58;17.90;99.90
21163;DHT22;10739;52.198;20.908;2022-09-13T16:08:24;18.00;99.90
21163;DHT22;10739;52.198;20.908;2022-09-13T16:10:50;17.90;99.90
21163;DHT22;10739;52.198;20.908;2022-09-13T16:13:17;17.90;99.90
21163;DHT22;10739;52.198;20.908;2022-09-13T16:15:43;17.90;99.90
21163;DHT22;10739;52.198;20.908;2022-09-13T16:18:09;17.80;99.90
21163;DHT22;10739;52.198;20.908;2022-09-13T16:20:42;17.70;99.90
21163;DHT22;10739;52.198;20.908;2022-09-13T16:23:08;17.60;99.90
21163;DHT22;10739;52.198;20.908;2022-09-13T16:25:35;17.60;99.90
21163;DHT22;10739;52.198;20.908;2022-09-13T16:28:04;17.60;99.90
21163;DHT22;10739;52.198;20.908;2022-09-13T16:30:31;17.50;99.90
21163;DHT22;10739;52.198;20.908;2022-09-13T16:32:58;17.50;99.90
21163;DHT22;10739;52.198;20.908;2022-09-13T16:35:27;17.30;99.90
21163;DHT22;10739;52.198;20.908;2022-09-13T16:37:55;17.30;99.90
21163;DHT22;10739;52.198;20.908;2022-09-13T16:40:22;17.30;99.90
21163;DHT22;10739;52.198;20.908;2022-09-13T16:42:49;17.30;99.90
21163;DHT22;10739;52.198;20.908;2022-09-13T16:45:16;17.30;99.90
21163;DHT22;10739;52.198;20.908;2022-09-13T16:47:42;17.20;99.90
21163;DHT22;10739;52.198;20.908;2022-09-13T16:50:08;17.20;99.90
21163;DHT22;10739;52.198;20.908;2022-09-13T16:52:35;17.20;99.90
21163;DHT22;10739;52.198;20.908;2022-09-13T16:55:02;17.10;99.90
21163;DHT22;10739;52.198;20.908;2022-09-13T16:57:29;17.10;99.90
21163;DHT22;10739;52.198;20.908;2022-09-13T16:59:55;17.00;99.90
21163;DHT22;10739;52.198;20.908;2022-09-13T17:02:24;17.00;99.90
21163;DHT22;10739;52.198;20.908;2022-09-13T17:04:51;16.90;99.90
21163;DHT22;10739;52.198;20.908;2022-09-13T17:07:18;16.90;99.90
21163;DHT22;10739;52.198;20.908;2022-09-13T17:09:45;16.90;99.90
21163;DHT22;10739;52.198;20.908;2022-09-13T17:12:13;17.00;99.90
21163;DHT22;10739;52.198;20.908;2022-09-13T17:14:40;16.90;99.90
21163;DHT22;10739;52.198;20.908;2022-09-13T17:17:08;16.80;99.90
21163;DHT22;10739;52.198;20.908;2022-09-13T17:19:35;16.80;99.90
21163;DHT22;10739;52.198;20.908;2022-09-13T17:22:03;16.70;99.90
21163;DHT22;10739;52.198;20.908;2022-09-13T17:24:33;16.70;99.90
21163;DHT22;10739;52.198;20.908;2022-09-13T17:26:59;16.70;99.90
21163;DHT22;10739;52.198;20.908;2022-09-13T17:29:25;16.70;99.90
21163;DHT22;10739;52.198;20.908;2022-09-13T17:31:56;16.70;99.90
21163;DHT22;10739;52.198;20.908;2022-09-13T17:34:23;16.70;99.90
21163;DHT22;10739;52.198;20.908;2022-09-13T17:36:49;16.60;99.90
21163;DHT22;10739;52.198;20.908;2022-09-13T17:39:15;16.60;99.90
21163;DHT22;10739;52.198;20.908;2022-09-13T17:41:42;16.50;99.90
21163;DHT22;10739;52.198;20.908;2022-09-13T17:44:08;16.40;99.90
21163;DHT22;10739;52.198;20.908;2022-09-13T17:46:37;16.40;99.90
21163;DHT22;10739;52.198;20.908;2022-09-13T17:49:03;16.40;99.90
21163;DHT22;10739;52.198;20.908;2022-09-13T17:51:31;16.30;99.90
21163;DHT22;10739;52.198;20.908;2022-09-13T17:54:01;16.40;99.90
21163;DHT22;10739;52.198;20.908;2022-09-13T17:56:38;16.40;99.90
21163;DHT22;10739;52.198;20.908;2022-09-13T17:59:11;16.40;99.90
21163;DHT22;10739;52.198;20.908;2022-09-13T18:01:42;16.40;99.90
21163;DHT22;10739;52.198;20.908;2022-09-13T18:04:11;16.40;99.90
21163;DHT22;10739;52.198;20.908;2022-09-13T18:06:38;16.40;99.90
21163;DHT22;10739;52.198;20.908;2022-09-13T18:09:08;16.30;99.90
21163;DHT22;10739;52.198;20.908;2022-09-13T18:11:36;16.30;99.90
21163;DHT22;10739;52.198;20.908;2022-09-13T18:14:03;16.30;99.90
21163;DHT22;10739;52.198;20.908;2022-09-13T18:16:30;16.30;99.90
21163;DHT22;10739;52.198;20.908;2022-09-13T18:18:58;16.20;99.90
21163;DHT22;10739;52.198;20.908;2022-09-13T18:21:26;16.20;99.90
21163;DHT22;10739;52.198;20.908;2022-09-13T18:23:56;16.20;99.90
21163;DHT22;10739;52.198;20.908;2022-09-13T18:26:25;16.20;99.90
21163;DHT22;10739;52.198;20.908;2022-09-13T18:28:54;16.20;99.90
21163;DHT22;10739;52.198;20.908;2022-09-13T18:31:23;16.20;99.90
21163;DHT22;10739;52.198;20.908;2022-09-13T18:33:54;16.30;99.90
21163;DHT22;10739;52.198;20.908;2022-09-13T18:36:23;16.30;99.90
21163;DHT22;10739;52.198;20.908;2022-09-13T18:38:51;16.30;99.90
21163;DHT22;10739;52.198;20.908;2022-09-13T18:41:23;16.30;99.90
21163;DHT22;10739;52.198;20.908;2022-09-13T18:43:52;16.30;99.90
21163;DHT22;10739;52.198;20.908;2022-09-13T18:46:21;16.30;99.90
21163;DHT22;10739;52.198;20.908;2022-09-13T18:48:51;16.30;99.90
21163;DHT22;10739;52.198;20.908;2022-09-13T18:51:21;16.40;99.90
21163;DHT22;10739;52.198;20.908;2022-09-13T18:53:55;16.30;99.90
21163;DHT22;10739;52.198;20.908;2022-09-13T18:56:23;16.20;99.90
21163;DHT22;10739;52.198;20.908;2022-09-13T18:58:51;16.20;99.90
21163;DHT22;10739;52.198;20.908;2022-09-13T19:01:21;16.20;99.90
21163;DHT22;10739;52.198;20.908;2022-09-13T19:04:01;16.10;99.90
21163;DHT22;10739;52.198;20.908;2022-09-13T19:06:31;16.10;99.90
21163;DHT22;10739;52.198;20.908;2022-09-13T19:09:00;16.30;99.90
21163;DHT22;10739;52.198;20.908;2022-09-13T19:11:34;16.30;99.90
21163;DHT22;10739;52.198;20.908;2022-09-13T19:14:03;16.20;99.90
21163;DHT22;10739;52.198;20.908;2022-09-13T19:16:30;16.20;99.90
21163;DHT22;10739;52.198;20.908;2022-09-13T19:18:56;16.10;99.90
21163;DHT22;10739;52.198;20.908;2022-09-13T19:21:28;16.10;99.90
21163;DHT22;10739;52.198;20.908;2022-09-13T19:23:56;16.20;99.90
21163;DHT22;10739;52.198;20.908;2022-09-13T19:26:28;16.20;99.90
21163;DHT22;10739;52.198;20.908;2022-09-13T19:29:04;16.10;99.90
21163;DHT22;10739;52.198;20.908;2022-09-13T19:31:35;16.10;99.90
21163;DHT22;10739;52.198;20.908;2022-09-13T19:34:04;16.00;99.90